Time;durP1;ratioP1;P1;durP2;ratioP2;P2;SDS_P1;SDS_P2;PMS_P1;PMS_P2;Temp;Humidity;BMP_temperature;BMP_pressure;BME280_temperature;BME280_humidity;BME280_pressure;Samples;Min_cycle;Max_cycle;Signal;HPM_P1;HPM_P2
2020/12/09 00:00:51;;;;;;;34.43;24.27;;;5.60;92.70;;;;;;5035542;28;20435;-71
2020/12/09 00:03:17;;;;;;;35.13;23.27;;;5.50;92.70;;;;;;5035555;28;20446;-70
2020/12/09 00:05:45;;;;;;;35.97;22.87;;;5.50;92.70;;;;;;5035167;28;20948;-70
2020/12/09 00:08:11;;;;;;;34.13;22.37;;;5.40;93.10;;;;;;5035219;28;20486;-71
2020/12/09 00:10:38;;;;;;;33.20;22.60;;;5.40;92.90;;;;;;5035292;28;20470;-70
2020/12/09 00:13:04;;;;;;;33.50;22.60;;;5.40;93.10;;;;;;5035413;28;20449;-70
2020/12/09 00:15:31;;;;;;;34.30;23.50;;;5.40;93.10;;;;;;5035366;28;20435;-71
2020/12/09 00:17:58;;;;;;;32.67;23.10;;;5.30;93.10;;;;;;5034953;28;20471;-71
2020/12/09 00:20:24;;;;;;;35.70;23.47;;;5.30;93.20;;;;;;5035223;28;20447;-71
2020/12/09 00:22:50;;;;;;;37.03;23.80;;;5.30;93.10;;;;;;5035265;28;20438;-70
2020/12/09 00:25:16;;;;;;;31.67;23.50;;;5.20;93.10;;;;;;5035180;28;20473;-70
2020/12/09 00:27:42;;;;;;;35.23;23.10;;;5.10;93.20;;;;;;5034503;28;21008;-70
2020/12/09 00:30:09;;;;;;;33.07;23.23;;;5.00;93.30;;;;;;5034922;28;20446;-70
2020/12/09 00:32:38;;;;;;;31.13;22.77;;;5.10;93.50;;;;;;5034982;28;20788;-70
2020/12/09 00:35:05;;;;;;;35.63;23.97;;;5.00;93.50;;;;;;5034670;28;20485;-70
2020/12/09 00:37:34;;;;;;;32.67;23.33;;;5.00;93.50;;;;;;5034617;28;20819;-71
2020/12/09 00:40:00;;;;;;;35.27;24.20;;;5.00;93.50;;;;;;5034637;28;20447;-71
2020/12/09 00:42:26;;;;;;;33.03;22.87;;;5.00;93.40;;;;;;5034952;28;20442;-71
2020/12/09 00:44:52;;;;;;;32.70;23.83;;;5.00;93.50;;;;;;5034623;28;20438;-71
2020/12/09 00:47:18;;;;;;;32.70;22.70;;;5.00;93.40;;;;;;5034156;28;20975;-70
2020/12/09 00:50:03;;;;;;;33.10;22.60;;;5.00;93.40;;;;;;5034373;28;20461;-70
2020/12/09 00:52:30;;;;;;;30.23;21.70;;;5.00;93.20;;;;;;5034609;28;20422;-70
2020/12/09 00:54:57;;;;;;;32.80;23.37;;;5.00;93.20;;;;;;5034410;28;20450;-70
2020/12/09 00:57:23;;;;;;;31.50;22.00;;;5.00;93.10;;;;;;5034352;28;20454;-71
2020/12/09 00:59:50;;;;;;;33.70;22.63;;;4.90;93.10;;;;;;5033985;28;20434;-71
2020/12/09 01:02:16;;;;;;;32.20;22.87;;;5.00;93.10;;;;;;5034488;28;20437;-70
2020/12/09 01:04:42;;;;;;;31.43;23.23;;;4.90;93.00;;;;;;5034247;28;20500;-70
2020/12/09 01:07:09;;;;;;;28.10;20.63;;;4.90;93.10;;;;;;5034435;28;20570;-71
2020/12/09 01:09:36;;;;;;;31.63;22.47;;;5.00;93.20;;;;;;5034310;28;20812;-70
2020/12/09 01:12:03;;;;;;;33.67;22.97;;;5.00;93.10;;;;;;5033717;28;20987;-71
2020/12/09 01:14:30;;;;;;;31.77;22.37;;;4.90;93.00;;;;;;5034085;28;20446;-70
2020/12/09 01:16:59;;;;;;;36.60;23.73;;;5.00;92.80;;;;;;5034085;28;20470;-70
2020/12/09 01:19:26;;;;;;;31.57;22.70;;;4.90;92.60;;;;;;5034188;28;20447;-70
2020/12/09 01:21:52;;;;;;;33.83;23.67;;;4.90;92.70;;;;;;5033779;28;20940;-70
2020/12/09 01:24:19;;;;;;;34.30;23.13;;;4.90;92.60;;;;;;5034018;28;20446;-70
2020/12/09 01:26:46;;;;;;;35.73;22.53;;;4.90;92.70;;;;;;5033795;28;20462;-71
2020/12/09 01:29:12;;;;;;;35.67;24.30;;;4.90;92.80;;;;;;5033873;28;20495;-70
2020/12/09 01:31:38;;;;;;;33.97;24.67;;;4.80;92.90;;;;;;5033539;28;20845;-70
2020/12/09 01:34:05;;;;;;;33.07;23.13;;;4.80;92.90;;;;;;5033807;28;20446;-70
2020/12/09 01:36:31;;;;;;;34.93;23.20;;;4.80;93.00;;;;;;5033439;28;20454;-71
2020/12/09 01:38:57;;;;;;;39.87;24.53;;;4.80;93.00;;;;;;5033438;28;20941;-70
2020/12/09 01:41:26;;;;;;;39.03;23.33;;;4.70;93.00;;;;;;5033658;28;20779;-70
2020/12/09 01:43:53;;;;;;;36.37;23.90;;;4.70;93.20;;;;;;5033775;28;20442;-70
2020/12/09 01:46:27;;;;;;;39.73;25.20;;;4.60;93.30;;;;;;5033690;28;20442;-71
2020/12/09 01:48:54;;;;;;;34.90;24.00;;;4.60;93.50;;;;;;5034488;28;20434;-70
2020/12/09 01:51:23;;;;;;;31.77;23.30;;;4.60;93.60;;;;;;5033569;28;20486;-70
2020/12/09 01:53:51;;;;;;;32.17;23.07;;;4.70;93.70;;;;;;5033254;28;20928;-70
2020/12/09 01:56:17;;;;;;;34.27;24.27;;;4.70;93.80;;;;;;5033528;28;20516;-70
2020/12/09 01:58:44;;;;;;;34.73;24.10;;;4.60;93.70;;;;;;5033551;28;20470;-70
2020/12/09 02:01:11;;;;;;;38.70;26.77;;;4.60;93.70;;;;;;5033604;28;20465;-70
2020/12/09 02:03:38;;;;;;;35.67;24.73;;;4.60;93.70;;;;;;5037204;28;20442;-70
2020/12/09 02:06:04;;;;;;;39.53;25.30;;;4.60;93.80;;;;;;5037658;28;20449;-70
2020/12/09 02:08:31;;;;;;;35.80;25.23;;;4.60;93.90;;;;;;5038728;28;20469;-70
2020/12/09 02:10:57;;;;;;;38.10;26.50;;;4.60;93.90;;;;;;5037420;28;20488;-70
2020/12/09 02:13:24;;;;;;;38.47;26.30;;;4.50;93.90;;;;;;5037677;28;20453;-70
2020/12/09 02:15:51;;;;;;;36.37;25.60;;;4.50;93.80;;;;;;5037461;28;20855;-70
2020/12/09 02:18:17;;;;;;;39.33;27.00;;;4.40;93.90;;;;;;5037359;28;20470;-71
2020/12/09 02:20:43;;;;;;;43.03;27.00;;;4.40;94.00;;;;;;5037414;28;20441;-70
2020/12/09 02:23:11;;;;;;;43.23;26.87;;;4.40;94.10;;;;;;5037005;28;20939;-70
2020/12/09 02:25:37;;;;;;;43.93;29.40;;;4.40;94.10;;;;;;5036961;28;20950;-70
2020/12/09 02:28:03;;;;;;;44.07;28.30;;;4.30;94.00;;;;;;5037107;28;20469;-70
2020/12/09 02:30:29;;;;;;;41.70;28.83;;;4.30;94.00;;;;;;5037128;28;20445;-70
2020/12/09 02:32:55;;;;;;;38.50;27.87;;;4.30;94.10;;;;;;5037218;28;20453;-70
2020/12/09 02:35:22;;;;;;;44.97;28.70;;;4.40;94.30;;;;;;5036794;28;20974;-70
2020/12/09 02:37:48;;;;;;;43.70;28.00;;;4.40;94.30;;;;;;5037104;28;20470;-70
2020/12/09 02:40:15;;;;;;;44.10;29.47;;;4.40;94.10;;;;;;5037333;28;20452;-70
2020/12/09 02:42:41;;;;;;;40.30;28.10;;;4.40;94.10;;;;;;5036963;28;20441;-70
2020/12/09 02:45:08;;;;;;;44.40;30.00;;;4.40;94.10;;;;;;5037692;28;20433;-71
2020/12/09 02:47:34;;;;;;;42.90;27.17;;;4.40;94.20;;;;;;5036874;28;20458;-70
2020/12/09 02:50:00;;;;;;;46.30;29.47;;;4.40;94.10;;;;;;5036543;28;20442;-70
2020/12/09 02:52:26;;;;;;;44.03;28.87;;;4.30;94.10;;;;;;5036815;28;20572;-70
2020/12/09 02:54:52;;;;;;;49.63;29.37;;;4.40;94.10;;;;;;5036797;28;20438;-70
2020/12/09 02:57:19;;;;;;;50.00;29.50;;;4.30;94.00;;;;;;5036838;28;20465;-71
2020/12/09 02:59:45;;;;;;;51.33;30.47;;;4.30;94.00;;;;;;5036917;28;20449;-70
2020/12/09 03:02:12;;;;;;;47.97;30.53;;;4.30;94.10;;;;;;5036849;28;20450;-70
2020/12/09 03:04:38;;;;;;;44.83;30.33;;;4.30;94.10;;;;;;5036535;28;20496;-70
2020/12/09 03:07:04;;;;;;;48.17;31.80;;;4.30;94.00;;;;;;5036495;28;20503;-70
2020/12/09 03:09:30;;;;;;;43.77;30.40;;;4.40;94.10;;;;;;5036395;28;20867;-70
2020/12/09 03:11:57;;;;;;;45.50;30.20;;;4.30;94.00;;;;;;5036375;28;20483;-70
2020/12/09 03:14:24;;;;;;;45.70;30.57;;;4.30;94.10;;;;;;5036150;28;20450;-70
2020/12/09 03:16:50;;;;;;;49.07;29.93;;;4.30;94.20;;;;;;5035926;28;20807;-70
2020/12/09 03:19:16;;;;;;;47.47;30.67;;;4.40;94.20;;;;;;5036331;28;20449;-70
2020/12/09 03:21:42;;;;;;;53.27;28.87;;;4.40;94.20;;;;;;5036171;28;20795;-70
2020/12/09 03:24:09;;;;;;;54.70;31.60;;;4.40;94.20;;;;;;5036238;28;20452;-70
2020/12/09 03:26:35;;;;;;;51.50;32.63;;;4.40;94.20;;;;;;5036198;28;20439;-71
2020/12/09 03:29:01;;;;;;;49.67;32.00;;;4.40;94.00;;;;;;5036097;28;20445;-70
2020/12/09 03:31:28;;;;;;;49.17;32.40;;;4.40;93.90;;;;;;5035846;28;20474;-70
2020/12/09 03:33:54;;;;;;;46.03;30.63;;;4.40;93.90;;;;;;5036228;28;20442;-70
2020/12/09 03:36:21;;;;;;;53.07;32.23;;;4.40;93.90;;;;;;5035735;28;20469;-72
2020/12/09 03:38:47;;;;;;;53.47;31.27;;;4.40;93.80;;;;;;5035653;28;20449;-70
2020/12/09 03:41:14;;;;;;;48.40;31.93;;;4.40;93.80;;;;;;5035902;28;20442;-70
2020/12/09 03:43:40;;;;;;;52.90;32.90;;;4.30;93.90;;;;;;5035464;28;20449;-70
2020/12/09 03:46:06;;;;;;;53.37;31.77;;;4.30;94.00;;;;;;5035796;28;20450;-70
2020/12/09 03:48:33;;;;;;;60.37;32.90;;;4.30;94.10;;;;;;5035637;28;20459;-71
2020/12/09 03:50:59;;;;;;;57.67;34.17;;;4.30;94.10;;;;;;5035711;28;20474;-70
2020/12/09 03:53:25;;;;;;;54.70;32.23;;;4.30;94.20;;;;;;5035674;28;20500;-70
2020/12/09 03:55:51;;;;;;;52.57;31.23;;;4.20;94.10;;;;;;5035690;28;20500;-70
2020/12/09 03:58:18;;;;;;;49.73;29.70;;;4.30;94.30;;;;;;5035503;28;20462;-70
2020/12/09 04:00:44;;;;;;;49.70;31.33;;;4.30;94.20;;;;;;5035754;28;20785;-70
2020/12/09 04:03:10;;;;;;;61.37;32.20;;;4.30;94.20;;;;;;5035580;28;20449;-70
2020/12/09 04:05:37;;;;;;;61.00;35.40;;;4.30;94.20;;;;;;5035816;28;20439;-70
2020/12/09 04:08:03;;;;;;;60.20;32.13;;;4.20;94.30;;;;;;5035426;28;20822;-70
2020/12/09 04:10:30;;;;;;;55.23;31.80;;;4.20;94.40;;;;;;5035665;28;20465;-70
2020/12/09 04:12:56;;;;;;;51.67;31.57;;;4.20;94.50;;;;;;5035611;28;20816;-70
2020/12/09 04:15:22;;;;;;;50.90;31.97;;;4.10;94.60;;;;;;5035467;28;20454;-70
2020/12/09 04:17:48;;;;;;;51.03;31.40;;;4.10;94.60;;;;;;5035374;28;20473;-70
2020/12/09 04:20:15;;;;;;;54.60;32.23;;;4.00;94.50;;;;;;5035488;28;20457;-70
2020/12/09 04:22:42;;;;;;;56.57;32.10;;;4.00;94.60;;;;;;5035387;28;20445;-70
2020/12/09 04:25:08;;;;;;;52.67;33.17;;;3.90;94.50;;;;;;5034574;28;20438;-70
2020/12/09 04:27:34;;;;;;;59.03;31.77;;;4.00;94.60;;;;;;5035156;28;20493;-71
2020/12/09 04:30:00;;;;;;;45.70;29.77;;;3.90;94.40;;;;;;5035084;28;20427;-70
2020/12/09 04:32:27;;;;;;;49.97;30.23;;;3.90;94.40;;;;;;5034869;28;20497;-70
2020/12/09 04:34:56;;;;;;;47.87;30.63;;;3.90;94.30;;;;;;5034606;28;20808;-70
2020/12/09 04:37:25;;;;;;;49.40;29.43;;;3.90;94.20;;;;;;5034809;28;20466;-70
2020/12/09 04:39:52;;;;;;;46.70;28.20;;;3.80;94.10;;;;;;5034639;28;20982;-70
2020/12/09 04:42:19;;;;;;;46.57;29.83;;;3.90;94.20;;;;;;5034389;28;20969;-70
2020/12/09 04:44:46;;;;;;;49.27;28.73;;;3.80;94.20;;;;;;5034584;28;20453;-70
2020/12/09 04:47:17;;;;;;;47.77;29.60;;;3.80;94.10;;;;;;5034558;28;20465;-70
2020/12/09 04:49:48;;;;;;;49.03;28.43;;;3.80;94.10;;;;;;5034661;28;20486;-70
2020/12/09 04:52:40;;;;;;;49.50;30.47;;;3.70;94.10;;;;;;5034540;28;20465;-70
2020/12/09 04:55:09;;;;;;;47.17;29.63;;;3.70;94.20;;;;;;5034510;28;20858;-70
2020/12/09 04:58:04;;;;;;;46.23;27.20;;;3.70;94.10;;;;;;5034328;28;20509;-70
2020/12/09 05:00:31;;;;;;;47.27;28.17;;;3.70;94.10;;;;;;5034261;28;20899;-70
2020/12/09 05:03:12;;;;;;;42.57;29.37;;;3.70;94.00;;;;;;5034386;28;20444;-70
2020/12/09 05:05:38;;;;;;;42.10;29.07;;;3.60;93.90;;;;;;5034212;28;20417;-70
2020/12/09 05:08:11;;;;;;;43.30;28.87;;;3.60;93.80;;;;;;5033825;28;20469;-70
2020/12/09 05:10:47;;;;;;;43.83;28.40;;;3.60;93.90;;;;;;5034220;28;20440;-70
2020/12/09 05:13:20;;;;;;;46.33;28.07;;;3.50;93.90;;;;;;5034132;28;20439;-70
2020/12/09 05:15:51;;;;;;;42.30;26.53;;;3.50;94.00;;;;;;5033882;28;20801;-70
2020/12/09 05:18:25;;;;;;;45.30;31.03;;;3.50;93.90;;;;;;5034096;28;20465;-70
2020/12/09 05:20:52;;;;;;;41.43;29.00;;;3.50;93.90;;;;;;5034136;28;20430;-70
2020/12/09 05:23:25;;;;;;;49.40;31.37;;;3.40;93.80;;;;;;5033961;28;20452;-70
2020/12/09 05:25:55;;;;;;;45.27;30.53;;;3.40;94.00;;;;;;5033978;28;20434;-70
2020/12/09 05:28:21;;;;;;;45.80;30.30;;;3.40;94.00;;;;;;5034247;28;20473;-70
2020/12/09 05:30:51;;;;;;;42.07;29.33;;;3.40;94.20;;;;;;5033496;28;20864;-70
2020/12/09 05:33:19;;;;;;;48.13;30.70;;;3.40;94.10;;;;;;5034081;28;20444;-70
2020/12/09 05:35:55;;;;;;;49.97;31.63;;;3.30;94.20;;;;;;5034439;28;20465;-70
2020/12/09 05:38:22;;;;;;;48.13;30.60;;;3.30;94.30;;;;;;5035197;28;20862;-70
2020/12/09 05:40:48;;;;;;;47.17;30.13;;;3.40;94.40;;;;;;5033867;28;20427;-70
2020/12/09 05:43:16;;;;;;;48.23;30.70;;;3.40;94.40;;;;;;5034084;28;20444;-70
2020/12/09 05:45:43;;;;;;;48.23;31.47;;;3.40;94.50;;;;;;5033762;28;20429;-70
2020/12/09 05:48:20;;;;;;;49.07;30.67;;;3.40;94.50;;;;;;5033502;28;20508;-70
2020/12/09 05:50:52;;;;;;;46.27;30.37;;;3.40;94.50;;;;;;5033171;28;20914;-70
2020/12/09 05:53:20;;;;;;;42.83;29.43;;;3.40;94.40;;;;;;5033707;28;20425;-70
2020/12/09 05:55:47;;;;;;;48.00;30.13;;;3.40;94.40;;;;;;5036875;28;20449;-70
2020/12/09 05:58:22;;;;;;;49.60;30.30;;;3.40;94.20;;;;;;5042865;28;20883;-71
2020/12/09 06:01:12;;;;;;;44.60;31.43;;;3.40;94.10;;;;;;5033739;28;20429;-70
2020/12/09 06:03:40;;;;;;;48.97;30.10;;;3.40;94.20;;;;;;5033057;28;20897;-70
2020/12/09 06:06:14;;;;;;;46.97;31.60;;;3.40;94.10;;;;;;5033418;28;20772;-70
2020/12/09 06:08:43;;;;;;;47.60;31.00;;;3.30;94.10;;;;;;5033270;28;20468;-70
2020/12/09 06:11:11;;;;;;;44.90;28.50;;;3.30;94.10;;;;;;5033280;28;20511;-70
2020/12/09 06:13:39;;;;;;;48.30;29.77;;;3.30;94.00;;;;;;5033318;28;20449;-70
2020/12/09 06:16:06;;;;;;;42.80;29.70;;;3.30;94.10;;;;;;5032959;28;20950;-70
2020/12/09 06:18:34;;;;;;;44.90;29.40;;;3.20;94.30;;;;;;5033176;28;20497;-70
2020/12/09 06:21:02;;;;;;;47.03;28.10;;;3.20;94.30;;;;;;5033334;28;20455;-70
2020/12/09 06:23:29;;;;;;;41.83;27.00;;;3.20;94.30;;;;;;5033716;28;20438;-70
2020/12/09 06:25:57;;;;;;;39.23;26.53;;;3.20;94.30;;;;;;5033184;28;20449;-70
2020/12/09 06:28:25;;;;;;;46.70;29.00;;;3.30;94.30;;;;;;5033137;28;20469;-70
2020/12/09 06:30:54;;;;;;;42.53;28.23;;;3.30;94.30;;;;;;5033064;28;20445;-70
2020/12/09 06:33:31;;;;;;;40.07;27.70;;;3.20;94.10;;;;;;5032909;28;20441;-70
2020/12/09 06:36:27;;;;;;;42.70;28.53;;;3.20;94.10;;;;;;5033015;28;20456;-70
2020/12/09 06:39:17;;;;;;;42.80;27.90;;;3.20;94.00;;;;;;4972098;28;20427;-70
2020/12/09 06:42:04;;;;;;;40.57;26.60;;;3.10;94.00;;;;;;5028286;28;20828;-70
2020/12/09 06:44:31;;;;;;;43.70;26.97;;;3.20;94.10;;;;;;5032676;28;20903;-71
2020/12/09 06:47:00;;;;;;;39.33;25.87;;;3.10;93.90;;;;;;5032904;28;21037;-71
2020/12/09 06:49:34;;;;;;;45.43;27.97;;;3.10;94.00;;;;;;5035289;28;20955;-71
2020/12/09 06:52:01;;;;;;;38.70;27.33;;;3.20;94.00;;;;;;5036475;28;20484;-71
2020/12/09 06:54:38;;;;;;;40.17;26.20;;;3.20;93.90;;;;;;5036510;28;20502;-71
2020/12/09 06:57:15;;;;;;;38.27;26.50;;;3.20;93.80;;;;;;5036338;28;20546;-71
2020/12/09 06:59:41;;;;;;;38.03;27.40;;;3.20;93.80;;;;;;5036110;28;20960;-71
2020/12/09 07:02:08;;;;;;;38.70;26.30;;;3.20;93.70;;;;;;5036368;28;20451;-71
2020/12/09 07:05:06;;;;;;;44.00;27.60;;;3.20;93.70;;;;;;5036397;28;20434;-71
2020/12/09 07:07:38;;;;;;;47.43;29.10;;;3.20;93.80;;;;;;5036002;28;20467;-71
2020/12/09 07:10:09;;;;;;;45.83;30.63;;;3.20;93.80;;;;;;5036079;28;20428;-71
2020/12/09 07:12:36;;;;;;;37.80;26.20;;;3.30;93.80;;;;;;5036241;28;20516;-70
2020/12/09 07:15:02;;;;;;;41.70;26.10;;;3.30;93.70;;;;;;5035878;28;20934;-71
2020/12/09 07:17:30;;;;;;;46.50;29.07;;;3.40;93.60;;;;;;5035856;28;20816;-71
2020/12/09 07:19:56;;;;;;;41.30;28.20;;;3.40;93.50;;;;;;5036189;28;20518;-70
2020/12/09 07:22:23;;;;;;;40.80;27.40;;;3.40;93.20;;;;;;5036153;28;20446;-70
2020/12/09 07:24:50;;;;;;;38.60;26.60;;;3.40;93.20;;;;;;5036122;28;20449;-71
2020/12/09 07:27:17;;;;;;;42.50;27.17;;;3.40;93.20;;;;;;5035978;28;21009;-71
2020/12/09 07:29:44;;;;;;;43.53;27.87;;;3.40;93.10;;;;;;5038945;28;20814;-70
2020/12/09 07:32:15;;;;;;;41.97;25.90;;;3.40;93.00;;;;;;5035742;28;20969;-71
2020/12/09 07:34:54;;;;;;;38.20;26.23;;;3.40;92.90;;;;;;5036212;28;20436;-71
2020/12/09 07:37:22;;;;;;;40.63;26.40;;;3.40;92.90;;;;;;5035816;28;20978;-71
2020/12/09 07:39:50;;;;;;;37.57;25.50;;;3.50;92.80;;;;;;5035874;28;20449;-71
2020/12/09 07:42:16;;;;;;;36.67;26.87;;;3.50;92.80;;;;;;5036070;28;20480;-71
2020/12/09 07:44:45;;;;;;;42.77;26.40;;;3.50;92.80;;;;;;5036519;28;20444;-71
2020/12/09 07:47:12;;;;;;;43.73;27.50;;;3.50;92.60;;;;;;5036211;28;20462;-71
2020/12/09 07:49:50;;;;;;;38.00;26.40;;;3.50;92.50;;;;;;5035860;28;20424;-71
2020/12/09 07:52:25;;;;;;;40.37;25.17;;;3.50;92.40;;;;;;5035729;28;20468;-71
2020/12/09 07:54:53;;;;;;;41.87;24.57;;;3.50;92.40;;;;;;5036370;28;20429;-71
2020/12/09 07:57:21;;;;;;;40.07;27.17;;;3.50;92.30;;;;;;5035463;28;20978;-71
2020/12/09 07:59:47;;;;;;;40.20;26.43;;;3.50;92.20;;;;;;5035382;28;20445;-71
2020/12/09 08:02:18;;;;;;;42.17;27.03;;;3.50;92.30;;;;;;5037051;28;20440;-71
2020/12/09 08:04:45;;;;;;;38.33;26.30;;;3.50;92.40;;;;;;5036175;28;20440;-72
2020/12/09 08:07:19;;;;;;;37.00;26.23;;;3.50;92.50;;;;;;5035556;28;20460;-71
2020/12/09 08:10:10;;;;;;;41.47;26.60;;;3.60;92.50;;;;;;5035630;28;20449;-71
2020/12/09 08:12:37;;;;;;;43.83;24.77;;;3.60;92.40;;;;;;5035591;28;20518;-71
2020/12/09 08:15:05;;;;;;;39.20;26.70;;;3.60;92.10;;;;;;5035955;28;20472;-71
2020/12/09 08:17:32;;;;;;;39.73;27.70;;;3.60;91.90;;;;;;5035482;28;20461;-71
2020/12/09 08:20:04;;;;;;;41.03;26.17;;;3.60;91.90;;;;;;5034874;28;20445;-71
2020/12/09 08:22:31;;;;;;;37.53;24.50;;;3.60;91.90;;;;;;5034728;28;20432;-71
2020/12/09 08:25:05;;;;;;;36.53;25.30;;;3.60;91.90;;;;;;5035006;28;20466;-71
2020/12/09 08:27:39;;;;;;;36.77;26.43;;;3.60;91.90;;;;;;5034884;28;20462;-71
2020/12/09 08:30:11;;;;;;;36.17;25.60;;;3.60;91.60;;;;;;5035028;28;20433;-71
2020/12/09 08:33:14;;;;;;;37.33;25.93;;;3.60;91.60;;;;;;5034993;28;20496;-71
2020/12/09 08:35:47;;;;;;;38.63;25.00;;;3.60;91.80;;;;;;5034488;28;20497;-71
2020/12/09 08:38:33;;;;;;;42.97;25.33;;;3.60;91.90;;;;;;5034628;28;20805;-71
2020/12/09 08:41:02;;;;;;;35.53;24.43;;;3.70;91.90;;;;;;5034354;28;20433;-71
2020/12/09 08:43:30;;;;;;;40.93;23.77;;;3.70;91.70;;;;;;5034528;28;20437;-71
2020/12/09 08:45:57;;;;;;;38.90;24.10;;;3.70;91.60;;;;;;5034562;28;20529;-71
2020/12/09 08:48:24;;;;;;;38.90;25.43;;;3.80;91.50;;;;;;5034812;28;20475;-70
2020/12/09 08:50:52;;;;;;;44.50;24.87;;;3.80;91.40;;;;;;5034660;28;20451;-71
2020/12/09 08:53:20;;;;;;;45.73;25.30;;;3.80;91.30;;;;;;5034595;28;20485;-71
2020/12/09 08:55:48;;;;;;;44.83;24.80;;;3.80;91.20;;;;;;5034398;28;20442;-71
2020/12/09 08:58:15;;;;;;;43.80;25.37;;;3.80;91.10;;;;;;5034395;28;20473;-71
2020/12/09 09:00:42;;;;;;;47.37;26.43;;;3.90;91.00;;;;;;5034314;28;20443;-71
2020/12/09 09:03:11;;;;;;;33.93;23.80;;;3.90;91.00;;;;;;5033972;28;20545;-71
2020/12/09 09:05:40;;;;;;;50.43;23.57;;;3.90;90.90;;;;;;5034674;28;20445;-71
2020/12/09 09:08:06;;;;;;;44.10;27.53;;;4.00;90.90;;;;;;5034066;28;20552;-71
2020/12/09 09:10:32;;;;;;;38.60;26.33;;;4.00;91.00;;;;;;5034389;28;20812;-71
2020/12/09 09:12:59;;;;;;;39.80;26.57;;;4.00;90.90;;;;;;5035235;28;20481;-71
2020/12/09 09:15:25;;;;;;;38.77;25.27;;;4.00;90.90;;;;;;5034299;28;20450;-71
2020/12/09 09:17:53;;;;;;;36.07;26.03;;;4.10;90.90;;;;;;5033973;28;20462;-71
2020/12/09 09:20:19;;;;;;;39.80;27.00;;;4.10;90.90;;;;;;5033680;28;20939;-71
2020/12/09 09:22:45;;;;;;;43.83;27.40;;;4.10;90.90;;;;;;5034020;28;20433;-71
2020/12/09 09:25:12;;;;;;;41.53;27.10;;;4.20;90.80;;;;;;5034380;28;20449;-71
2020/12/09 09:27:38;;;;;;;40.70;26.47;;;4.20;90.80;;;;;;5033978;28;20465;-71
2020/12/09 09:30:06;;;;;;;40.37;27.47;;;4.20;90.70;;;;;;5033675;28;20928;-71
2020/12/09 09:32:32;;;;;;;41.03;29.53;;;4.30;90.80;;;;;;5033684;28;20485;-71
2020/12/09 09:34:58;;;;;;;40.33;27.40;;;4.30;90.90;;;;;;5033671;28;20779;-71
2020/12/09 09:37:25;;;;;;;45.67;31.60;;;4.40;90.90;;;;;;5033580;28;20512;-72
2020/12/09 09:39:51;;;;;;;43.10;29.00;;;4.40;91.00;;;;;;5033677;28;20785;-71
2020/12/09 09:42:18;;;;;;;39.53;28.10;;;4.50;91.00;;;;;;5033614;28;20476;-71
2020/12/09 09:44:45;;;;;;;45.40;30.43;;;4.50;90.90;;;;;;5033803;28;20450;-71
2020/12/09 09:47:12;;;;;;;46.93;28.90;;;4.60;90.80;;;;;;5033554;28;20462;-71
2020/12/09 09:49:39;;;;;;;45.33;29.27;;;4.60;90.60;;;;;;5033747;28;20454;-71
2020/12/09 09:52:06;;;;;;;42.67;28.80;;;4.70;90.40;;;;;;5033182;28;20493;-71
2020/12/09 09:54:32;;;;;;;44.20;28.30;;;4.80;90.40;;;;;;5033462;28;20450;-71
2020/12/09 09:56:58;;;;;;;44.63;28.77;;;4.80;90.40;;;;;;5033748;28;20462;-71
2020/12/09 09:59:25;;;;;;;36.80;25.37;;;4.90;90.40;;;;;;5033574;28;20455;-71
2020/12/09 10:01:52;;;;;;;37.80;26.73;;;5.00;90.50;;;;;;5033414;28;20441;-71
2020/12/09 10:04:19;;;;;;;41.30;28.60;;;5.00;90.50;;;;;;5033323;28;20481;-71
2020/12/09 10:06:46;;;;;;;43.73;27.80;;;5.10;90.40;;;;;;5034179;28;20838;-72
2020/12/09 10:09:12;;;;;;;39.40;28.10;;;5.20;90.20;;;;;;5034333;28;20441;-71
2020/12/09 10:11:40;;;;;;;40.33;28.13;;;5.20;90.10;;;;;;5035633;28;20490;-71
2020/12/09 10:14:07;;;;;;;43.40;29.87;;;5.30;90.10;;;;;;5033417;28;20773;-71
2020/12/09 10:16:34;;;;;;;44.33;29.67;;;5.40;90.00;;;;;;5033660;28;20423;-71
2020/12/09 10:19:00;;;;;;;40.80;27.20;;;5.40;89.30;;;;;;5033374;28;20443;-71
2020/12/09 10:21:30;;;;;;;38.07;28.47;;;5.50;88.90;;;;;;5033493;28;20541;-71
2020/12/09 10:23:57;;;;;;;43.70;28.43;;;5.50;88.90;;;;;;5035709;28;20799;-71
2020/12/09 10:26:27;;;;;;;42.07;28.10;;;5.60;88.20;;;;;;5036908;28;20831;-70
2020/12/09 10:28:54;;;;;;;44.73;28.10;;;5.60;87.40;;;;;;5036870;28;20940;-71
2020/12/09 10:31:20;;;;;;;41.03;28.00;;;5.70;87.10;;;;;;5036703;28;20446;-71
2020/12/09 10:33:46;;;;;;;42.13;28.00;;;5.70;87.00;;;;;;5037067;28;20442;-71
2020/12/09 10:36:14;;;;;;;38.97;26.70;;;5.80;87.10;;;;;;5036687;28;20949;-71
2020/12/09 10:38:41;;;;;;;38.67;28.03;;;5.90;87.30;;;;;;5037213;28;20462;-71
2020/12/09 10:41:09;;;;;;;41.40;28.20;;;6.10;87.50;;;;;;5037154;28;20446;-71
2020/12/09 10:43:38;;;;;;;41.30;28.20;;;6.20;87.50;;;;;;5036969;28;20419;-71
2020/12/09 10:46:05;;;;;;;41.10;27.40;;;6.30;86.50;;;;;;5036765;28;20453;-71
2020/12/09 10:48:31;;;;;;;35.97;26.87;;;6.50;86.40;;;;;;5036704;28;20481;-71
2020/12/09 10:50:57;;;;;;;39.70;27.83;;;6.60;85.70;;;;;;5036691;28;20450;-71
2020/12/09 10:53:23;;;;;;;37.93;26.17;;;6.70;85.40;;;;;;5036412;28;20477;-71
2020/12/09 10:55:50;;;;;;;35.63;25.40;;;6.80;84.90;;;;;;5036470;28;20805;-71
2020/12/09 10:58:17;;;;;;;35.20;26.43;;;6.90;83.50;;;;;;5036836;28;20469;-71
2020/12/09 11:00:43;;;;;;;38.30;26.97;;;7.00;82.60;;;;;;5036722;28;20450;-71
2020/12/09 11:03:09;;;;;;;37.10;25.77;;;7.00;81.30;;;;;;5036245;28;20814;-71
2020/12/09 11:05:35;;;;;;;39.07;27.73;;;7.10;80.10;;;;;;5036460;28;20437;-71
2020/12/09 11:08:01;;;;;;;34.83;26.77;;;7.20;80.40;;;;;;5036067;28;20971;-71
2020/12/09 11:10:28;;;;;;;34.30;25.73;;;7.30;80.80;;;;;;5036580;28;20447;-72
2020/12/09 11:12:55;;;;;;;39.40;27.97;;;7.60;79.30;;;;;;5036475;28;20531;-71
2020/12/09 11:15:21;;;;;;;33.83;25.90;;;7.90;78.00;;;;;;5036431;28;20818;-71
2020/12/09 11:17:47;;;;;;;35.70;27.80;;;8.20;75.80;;;;;;5036349;28;20451;-71
2020/12/09 11:20:13;;;;;;;30.23;25.20;;;8.60;75.20;;;;;;5036427;28;20430;-71
2020/12/09 11:22:39;;;;;;;29.77;24.60;;;8.90;72.80;;;;;;5036924;28;20959;-71
2020/12/09 11:25:06;;;;;;;34.67;26.00;;;9.10;71.10;;;;;;5037553;28;20442;-71
2020/12/09 11:27:32;;;;;;;32.13;24.37;;;9.40;69.70;;;;;;5036437;28;20485;-71
2020/12/09 11:29:59;;;;;;;31.80;24.87;;;9.60;68.40;;;;;;5036458;28;20442;-71
2020/12/09 11:32:31;;;;;;;35.93;24.90;;;9.80;68.20;;;;;;5041332;28;20561;-71
2020/12/09 11:34:57;;;;;;;29.87;24.20;;;10.10;66.20;;;;;;5035764;28;20423;-71
2020/12/09 11:37:23;;;;;;;32.73;26.20;;;10.40;64.30;;;;;;5036118;28;20466;-72
2020/12/09 11:39:50;;;;;;;35.33;24.30;;;10.60;62.30;;;;;;5035933;28;20434;-72
2020/12/09 11:42:16;;;;;;;30.80;25.23;;;10.70;61.50;;;;;;5036070;28;20419;-72
2020/12/09 11:44:42;;;;;;;31.73;24.80;;;10.90;62.00;;;;;;5035891;28;20446;-72
2020/12/09 11:47:09;;;;;;;29.30;24.77;;;11.10;62.10;;;;;;5036041;28;20459;-72
2020/12/09 11:49:35;;;;;;;31.03;25.67;;;11.30;59.60;;;;;;5035793;28;20457;-72
2020/12/09 11:52:02;;;;;;;41.83;24.10;;;11.50;59.10;;;;;;5035604;28;20478;-72
2020/12/09 11:54:28;;;;;;;30.50;24.10;;;11.70;59.40;;;;;;5036024;28;20450;-72
2020/12/09 11:56:57;;;;;;;35.80;25.63;;;11.90;59.60;;;;;;5035811;28;20470;-72
2020/12/09 11:59:23;;;;;;;31.47;24.33;;;12.00;58.30;;;;;;5035785;28;20446;-71
2020/12/09 12:01:49;;;;;;;29.60;24.97;;;12.20;58.20;;;;;;5035715;28;20477;-71
2020/12/09 12:04:16;;;;;;;30.30;25.43;;;12.30;57.20;;;;;;5036052;28;20434;-71
2020/12/09 12:06:43;;;;;;;26.60;23.57;;;12.50;57.10;;;;;;5035362;28;20427;-71
2020/12/09 12:09:09;;;;;;;27.07;22.67;;;12.60;57.30;;;;;;5035340;28;20451;-71
2020/12/09 12:11:35;;;;;;;27.00;23.23;;;12.80;57.10;;;;;;5035292;28;20455;-71
2020/12/09 12:14:01;;;;;;;30.77;25.60;;;13.10;57.00;;;;;;5035243;28;20442;-71
2020/12/09 12:16:28;;;;;;;28.30;24.90;;;13.40;55.70;;;;;;5035311;28;20438;-72
2020/12/09 12:18:54;;;;;;;26.33;22.73;;;13.50;54.70;;;;;;5035141;28;20446;-72
2020/12/09 12:21:25;;;;;;;25.30;22.20;;;13.60;54.50;;;;;;5035055;28;20450;-72
2020/12/09 12:23:52;;;;;;;25.80;22.00;;;13.80;54.60;;;;;;5035411;28;20427;-72
2020/12/09 12:26:19;;;;;;;25.93;23.10;;;14.00;54.40;;;;;;5034944;28;20453;-72
2020/12/09 12:28:46;;;;;;;28.23;23.83;;;14.20;54.00;;;;;;5034826;28;20462;-72
2020/12/09 12:31:14;;;;;;;27.73;24.40;;;14.40;53.30;;;;;;5034991;28;20441;-73
2020/12/09 12:33:41;;;;;;;29.47;25.47;;;14.60;52.90;;;;;;5034874;28;20485;-72
2020/12/09 12:36:08;;;;;;;28.50;25.10;;;14.70;52.70;;;;;;5034599;28;20458;-72
2020/12/09 12:38:35;;;;;;;26.00;23.23;;;14.80;52.30;;;;;;5034711;28;20466;-72
2020/12/09 12:41:02;;;;;;;30.97;24.23;;;14.90;51.50;;;;;;5034456;28;20480;-72